TimeAKST,TemperatureF,Dew PointF,Humidity,Sea Level PressureIn,VisibilityMPH,Wind Direction,Wind SpeedMPH,Gust SpeedMPH,PrecipitationIn,Events,Conditions,WindDirDegrees,DateUTC
12:53 AM,10.2,-6.0,48,29.93,10.0,WNW,6.9,-,N/A,,Scattered Clouds,300,2012-11-18 09:53:00
1:53 AM,10.9,-2.2,56,29.93,10.0,NNW,6.9,-,N/A,,Scattered Clouds,340,2012-11-18 10:53:00
3:53 AM,14.0,-5.8,41,29.93,10.0,North,5.8,-,N/A,,Scattered Clouds,350,2012-11-18 12:53:00
4:53 AM,12.2,-5.8,45,29.94,10.0,North,11.5,-,N/A,,Partly Cloudy,350,2012-11-18 13:53:00
5:53 AM,12.0,-7.6,41,29.96,10.0,NNW,9.2,-,N/A,,Partly Cloudy,340,2012-11-18 14:53:00
6:53 AM,14.0,-7.6,38,29.98,10.0,NNW,11.5,-,N/A,,Partly Cloudy,340,2012-11-18 15:53:00
7:53 AM,12.0,-7.6,41,29.99,10.0,NNW,12.7,-,N/A,,Partly Cloudy,340,2012-11-18 16:53:00
8:53 AM,15.1,-8.0,36,29.99,10.0,NNW,12.7,-,N/A,,Partly Cloudy,330,2012-11-18 17:53:00
9:53 AM,14.0,-7.1,39,30.00,10.0,North,15.0,-,N/A,,Clear,350,2012-11-18 18:53:00
10:53 AM,12.9,-6.0,43,30.01,10.0,North,10.4,-,N/A,,Clear,10,2012-11-18 19:53:00
11:53 AM,16.0,-6.0,38,30.03,10.0,Calm,Calm,-,N/A,,Clear,0,2012-11-18 20:53:00
12:53 PM,17.1,-6.0,36,30.04,10.0,SSE,3.5,-,N/A,,Clear,150,2012-11-18 21:53:00
1:53 PM,18.0,-5.1,36,30.05,10.0,Calm,Calm,-,N/A,,Clear,0,2012-11-18 22:53:00
2:53 PM,18.0,-20.2,17,30.06,10.0,NNE,10.4,-,N/A,,Clear,20,2012-11-18 23:53:00
3:53 PM,18.0,-20.0,18,30.07,10.0,ENE,5.8,-,N/A,,Clear,70,2012-11-19 00:53:00
4:53 PM,16.0,-4.9,39,30.07,10.0,ENE,10.4,-,N/A,,Partly Cloudy,60,2012-11-19 01:53:00
5:53 PM,13.1,-4.9,45,30.09,10.0,NE,9.2,-,N/A,,Partly Cloudy,50,2012-11-19 02:53:00
6:53 PM,12.0,-4.9,47,30.12,10.0,NE,6.9,-,N/A,,Scattered Clouds,40,2012-11-19 03:53:00
7:53 PM,12.0,-4.9,47,30.14,10.0,ENE,11.5,-,N/A,,Scattered Clouds,60,2012-11-19 04:53:00
8:53 PM,13.1,-4.9,45,30.15,10.0,ENE,11.5,-,N/A,,Scattered Clouds,60,2012-11-19 05:53:00
9:53 PM,13.1,-4.9,45,30.14,10.0,ENE,9.2,-,N/A,,Scattered Clouds,70,2012-11-19 06:53:00
10:53 PM,9.0,-4.9,53,30.15,10.0,ENE,6.9,-,N/A,,Scattered Clouds,60,2012-11-19 07:53:00
11:53 PM,8.1,-4.9,56,30.17,10.0,NNE,5.8,-,N/A,,Scattered Clouds,20,2012-11-19 08:53:00